CheckWX is a tool to help pilots better visualize weather data.  It is not intended as a substitute for an official pre-flight weather briefing.

18:16:37 UTC

KTZR METAR
Bolton Field Airport
Columbus, Ohio, USA
Current

32 mins ago

KTZR 171745Z 09006KT 10SM OVC015 M01/M06 A2981
Observed
Feb-17 @ 17:45 UTC
Wind
  • 090° at 6 KTS
Visibility
10 SM
Flight Rules
MVFR
Cloud Levels
  • Overcast at 1,500' AGL
Temperature
-1°C / 30°F
Dewpoint
-6°C / 21°F
Humidity
69%
Altimeter
29.81" Hg
Pressure
1009.52 hPa
Previous

2 hours ago

KTZR 171645Z 09007KT 10SM OVC023 M01/M06 A2985
Observed
Feb-17 @ 16:45 UTC
Wind
  • 090° at 7 KTS
Visibility
10 SM
Flight Rules
MVFR
Cloud Levels
  • Overcast at 2,300' AGL
Temperature
-1°C / 30°F
Dewpoint
-6°C / 21°F
Humidity
69%
Altimeter
29.85" Hg
Pressure
1010.82 hPa
Previous

3 hours ago

KTZR 171545Z 09008KT 10SM BKN021 OVC034 M02/M07 A2987
Observed
Feb-17 @ 15:45 UTC
Wind
  • 090° at 8 KTS
Visibility
10 SM
Flight Rules
MVFR
Cloud Levels
  • Broken at 2,100' AGL
  • Overcast at 3,400' AGL
Temperature
-2°C / 28°F
Dewpoint
-7°C / 19°F
Humidity
69%
Altimeter
29.87" Hg
Pressure
1011.52 hPa